createdAt,value
2018-09-01T00:01:16.822Z,4.23
2018-09-01T00:03:45.369Z,5.40
2018-09-01T00:06:14.114Z,8.30
2018-09-01T00:08:42.704Z,7.00
2018-09-01T00:11:11.232Z,3.87
2018-09-01T00:13:39.794Z,5.50
2018-09-01T00:16:08.350Z,4.70
2018-09-01T00:18:36.887Z,6.13
2018-09-01T00:21:05.438Z,5.20
2018-09-01T00:23:33.975Z,6.80
2018-09-01T00:26:02.554Z,5.43
2018-09-01T00:28:31.110Z,4.17
2018-09-01T00:30:59.755Z,9.07
2018-09-01T00:33:28.275Z,6.07
2018-09-01T00:35:56.828Z,6.30
2018-09-01T00:38:30.706Z,8.13
2018-09-01T00:40:59.258Z,4.53
2018-09-01T00:43:27.764Z,8.10
2018-09-01T00:45:56.307Z,4.73
2018-09-01T00:48:24.892Z,5.40
2018-09-01T00:50:53.435Z,3.90
2018-09-01T00:53:22.006Z,6.83
2018-09-01T00:55:50.540Z,5.33
2018-09-01T00:58:19.091Z,4.17
2018-09-01T01:00:47.698Z,5.80
2018-09-01T01:03:16.276Z,6.23
2018-09-01T01:05:44.899Z,5.43
2018-09-01T01:08:13.462Z,4.30
2018-09-01T01:10:42.027Z,4.50
2018-09-01T01:13:10.573Z,4.37
2018-09-01T01:15:39.104Z,5.70
2018-09-01T01:18:07.655Z,4.40
2018-09-01T01:20:36.259Z,4.93
2018-09-01T01:23:04.787Z,5.03
2018-09-01T01:25:33.316Z,4.03
2018-09-01T01:28:01.879Z,5.33
2018-09-01T01:30:30.451Z,4.70
2018-09-01T01:32:58.985Z,4.43
2018-09-01T01:35:27.511Z,5.40
2018-09-01T01:37:56.063Z,4.60
2018-09-01T01:40:24.675Z,6.70
2018-09-01T01:42:53.203Z,6.23
2018-09-01T01:45:21.784Z,3.90
2018-09-01T01:47:50.351Z,4.73
2018-09-01T01:50:18.908Z,4.67
2018-09-01T01:52:47.466Z,4.30
2018-09-01T01:55:16.044Z,4.70
2018-09-01T01:57:50.129Z,3.77
2018-09-01T02:00:18.707Z,3.77
2018-09-01T02:02:47.744Z,5.13
2018-09-01T02:05:18.147Z,3.70
2018-09-01T02:07:48.122Z,4.60
2018-09-01T02:10:16.717Z,3.83
2018-09-01T02:12:45.258Z,4.67
2018-09-01T02:15:13.895Z,5.03
2018-09-01T02:17:42.508Z,3.33
2018-09-01T02:20:11.069Z,6.90
2018-09-01T02:22:39.612Z,4.23
2018-09-01T02:25:08.195Z,6.03
2018-09-01T02:27:36.732Z,5.20
2018-09-01T02:30:05.347Z,3.87
2018-09-01T02:32:33.871Z,5.13
2018-09-01T02:35:02.435Z,3.53
2018-09-01T02:37:31.211Z,4.57
2018-09-01T02:39:59.727Z,6.17
2018-09-01T02:42:28.277Z,4.37
2018-09-01T02:44:56.824Z,3.57
2018-09-01T02:47:25.443Z,3.60
2018-09-01T02:49:54.012Z,7.10
2018-09-01T02:52:22.791Z,3.10
2018-09-01T02:54:51.380Z,3.23
2018-09-01T02:57:19.950Z,5.77
2018-09-01T02:59:48.540Z,6.03
2018-09-01T03:02:22.461Z,4.10
2018-09-01T03:04:51.008Z,5.93
2018-09-01T03:07:19.548Z,4.97
2018-09-01T03:09:48.138Z,3.67
2018-09-01T03:12:16.675Z,3.97
2018-09-01T03:14:45.331Z,5.77
2018-09-01T03:17:13.865Z,3.57
2018-09-01T03:19:42.417Z,3.90
2018-09-01T03:22:10.972Z,3.73
2018-09-01T03:24:39.564Z,4.57
2018-09-01T03:27:08.135Z,4.30
2018-09-01T03:29:36.687Z,4.37
2018-09-01T03:32:05.243Z,3.37
2018-09-01T03:34:33.789Z,4.87
2018-09-01T03:37:02.358Z,5.43
2018-09-01T03:39:30.995Z,4.33
2018-09-01T03:41:59.549Z,3.73
2018-09-01T03:44:28.081Z,5.03
2018-09-01T03:46:56.634Z,3.60
2018-09-01T03:49:25.269Z,5.13
2018-09-01T03:51:53.850Z,5.07
2018-09-01T03:54:22.415Z,4.27
2018-09-01T03:56:50.986Z,3.77
2018-09-01T03:59:19.602Z,4.10
2018-09-01T04:01:48.166Z,3.43
2018-09-01T04:04:16.700Z,3.50
2018-09-01T04:06:45.256Z,6.63
2018-09-01T04:09:13.830Z,3.50
2018-09-01T04:11:42.362Z,4.20
2018-09-01T04:14:10.957Z,3.57
2018-09-01T04:16:39.498Z,2.80
2018-09-01T04:19:18.486Z,5.93
2018-09-01T04:21:48.871Z,2.87
2018-09-01T04:24:17.550Z,3.80
2018-09-01T04:26:46.970Z,3.57
2018-09-01T04:29:16.266Z,3.33
2018-09-01T04:31:45.179Z,3.50
2018-09-01T04:34:13.723Z,3.20
2018-09-01T04:36:42.398Z,4.67
2018-09-01T04:39:12.313Z,4.77
2018-09-01T04:41:41.431Z,6.10
2018-09-01T04:44:10.095Z,4.30
2018-09-01T04:46:38.937Z,4.23
2018-09-01T04:49:07.515Z,6.50
2018-09-01T04:51:36.275Z,4.20
2018-09-01T04:54:04.915Z,4.73
2018-09-01T04:56:33.459Z,3.90
2018-09-01T04:59:02.099Z,5.87
2018-09-01T05:01:30.714Z,3.63
2018-09-01T05:03:59.200Z,5.47
2018-09-01T05:06:27.836Z,5.63
2018-09-01T05:08:56.426Z,3.80
2018-09-01T05:11:24.983Z,6.47
2018-09-01T05:13:53.520Z,7.37
2018-09-01T05:16:22.127Z,4.83
2018-09-01T05:18:51.288Z,9.23
2018-09-01T05:21:19.792Z,5.53
2018-09-01T05:23:48.420Z,5.87
2018-09-01T05:26:37.625Z,5.53
2018-09-01T05:29:06.290Z,3.10
2018-09-01T05:31:35.499Z,6.13
2018-09-01T05:34:06.246Z,5.13
2018-09-01T05:36:34.882Z,9.83
2018-09-01T05:39:04.070Z,8.73
2018-09-01T05:41:32.699Z,4.87
2018-09-01T05:44:01.293Z,11.07
2018-09-01T05:46:30.911Z,5.83
2018-09-01T05:48:59.474Z,7.80
2018-09-01T05:51:28.077Z,8.33
2018-09-01T05:53:57.092Z,7.27
2018-09-01T05:56:26.371Z,7.50
2018-09-01T05:58:55.004Z,11.53
2018-09-01T06:01:23.583Z,9.90
2018-09-01T06:03:52.159Z,7.80
2018-09-01T06:06:20.807Z,13.67
2018-09-01T06:08:49.336Z,20.53
2018-09-01T06:11:17.962Z,14.70
2018-09-01T06:13:46.594Z,11.30
2018-09-01T06:16:15.132Z,11.57
2018-09-01T06:18:43.691Z,11.33
2018-09-01T06:21:12.283Z,15.00
2018-09-01T06:23:40.851Z,11.87
2018-09-01T06:26:09.434Z,14.07
2018-09-01T06:29:13.886Z,11.77
2018-09-01T06:31:56.979Z,12.57
2018-09-01T06:34:25.641Z,24.53
2018-09-01T06:36:54.186Z,15.07
2018-09-01T06:39:22.712Z,12.57
2018-09-01T06:41:51.439Z,11.97
2018-09-01T06:44:20.013Z,12.47
2018-09-01T06:46:48.563Z,13.10
2018-09-01T06:49:17.234Z,12.20
2018-09-01T06:51:45.821Z,13.43
2018-09-01T06:54:14.367Z,10.50
2018-09-01T06:56:42.939Z,12.03
2018-09-01T06:59:11.543Z,11.97
2018-09-01T07:01:40.084Z,13.17
2018-09-01T07:04:08.730Z,9.23
2018-09-01T07:06:37.268Z,14.50
2018-09-01T07:09:07.225Z,7.90
2018-09-01T07:11:35.865Z,8.57
2018-09-01T07:14:04.405Z,8.50
2018-09-01T07:16:33.166Z,8.47
2018-09-01T07:19:01.732Z,12.97
2018-09-01T07:21:30.325Z,12.50
2018-09-01T07:23:58.917Z,10.17
2018-09-01T07:26:27.453Z,11.70
2018-09-01T07:28:56.027Z,11.23
2018-09-01T07:31:24.889Z,9.13
2018-09-01T07:33:53.159Z,8.77
2018-09-01T07:36:21.788Z,8.13
2018-09-01T07:38:50.397Z,6.07
2018-09-01T07:41:18.976Z,8.10
2018-09-01T07:43:47.596Z,8.10
2018-09-01T07:46:16.168Z,11.80
2018-09-01T07:48:44.724Z,6.60
2018-09-01T07:51:13.279Z,9.47
2018-09-01T07:53:41.872Z,7.03
2018-09-01T07:56:11.544Z,8.80
2018-09-01T07:58:40.094Z,11.73
2018-09-01T08:01:08.666Z,13.30
2018-09-01T08:03:37.211Z,12.10
2018-09-01T08:06:05.727Z,11.23
2018-09-01T08:08:34.289Z,13.67
2018-09-01T08:11:02.843Z,11.70
2018-09-01T08:13:31.542Z,12.57
2018-09-01T08:16:00.103Z,14.23
2018-09-01T08:18:28.672Z,13.00
2018-09-01T08:20:57.214Z,13.93
2018-09-01T08:23:25.798Z,15.73
2018-09-01T08:25:54.401Z,18.33
2018-09-01T08:28:22.963Z,13.43
2018-09-01T08:30:51.502Z,14.43
2018-09-01T08:33:20.114Z,15.83
2018-09-01T08:35:48.673Z,15.00
2018-09-01T08:38:17.259Z,18.37
2018-09-01T08:40:45.788Z,11.97
2018-09-01T08:43:14.459Z,15.20
2018-09-01T08:45:42.983Z,14.67
2018-09-01T08:48:11.576Z,14.90
2018-09-01T08:50:40.150Z,13.33
2018-09-01T08:53:08.767Z,11.80
2018-09-01T08:55:37.330Z,13.03
2018-09-01T08:58:05.996Z,11.93
2018-09-01T09:00:34.535Z,12.10
2018-09-01T09:03:03.084Z,13.77
2018-09-01T09:05:31.700Z,13.50
2018-09-01T09:08:00.236Z,15.03
2018-09-01T09:10:28.792Z,11.97
2018-09-01T09:12:57.684Z,18.00
2018-09-01T09:15:26.274Z,8.67
2018-09-01T09:17:54.851Z,8.37
2018-09-01T09:20:23.390Z,8.03
2018-09-01T09:22:51.967Z,10.30
2018-09-01T09:25:20.566Z,7.60
2018-09-01T09:27:49.219Z,12.77
2018-09-01T09:30:17.777Z,8.33
2018-09-01T09:32:46.343Z,7.53
2018-09-01T09:35:14.923Z,8.40
2018-09-01T09:37:43.535Z,8.50
2018-09-01T09:40:12.106Z,6.53
2018-09-01T09:42:40.720Z,8.70
2018-09-01T09:45:09.305Z,11.00
2018-09-01T09:47:37.851Z,6.87
2018-09-01T09:50:06.399Z,8.60
2018-09-01T09:52:34.958Z,9.67
2018-09-01T09:55:03.579Z,6.60
2018-09-01T09:57:32.152Z,6.77
2018-09-01T10:00:00.727Z,9.37
2018-09-01T10:02:29.374Z,7.10
2018-09-01T10:04:57.915Z,5.87
2018-09-01T10:07:26.483Z,6.10
2018-09-01T10:09:55.030Z,6.83
2018-09-01T10:12:23.624Z,5.23
2018-09-01T10:14:52.157Z,6.40
2018-09-01T10:17:20.744Z,8.43
2018-09-01T10:19:49.297Z,6.90
2018-09-01T10:22:17.845Z,6.17
2018-09-01T10:24:46.403Z,5.73
2018-09-01T10:27:14.928Z,7.23
2018-09-01T10:29:43.479Z,4.70
2018-09-01T10:32:12.075Z,6.83
2018-09-01T10:34:40.627Z,4.57
2018-09-01T10:37:09.215Z,6.10
2018-09-01T10:39:37.791Z,8.33
2018-09-01T10:42:06.346Z,4.57
2018-09-01T10:44:34.894Z,5.57
2018-09-01T10:47:03.475Z,7.30
2018-09-01T10:49:32.007Z,5.47
2018-09-01T10:52:00.587Z,7.10
2018-09-01T10:54:29.192Z,8.23
2018-09-01T10:56:57.763Z,5.33
2018-09-01T10:59:26.435Z,5.80
2018-09-01T11:01:54.940Z,5.57
2018-09-01T11:04:23.493Z,6.93
2018-09-01T11:06:52.046Z,5.30
2018-09-01T11:09:20.599Z,4.83
2018-09-01T11:11:49.147Z,6.57
2018-09-01T11:14:17.851Z,6.63
2018-09-01T11:16:46.864Z,4.73
2018-09-01T11:19:15.392Z,5.90
2018-09-01T11:21:43.966Z,5.83
2018-09-01T11:24:12.519Z,5.50
2018-09-01T11:26:41.097Z,3.97
2018-09-01T11:29:09.678Z,4.57
2018-09-01T11:31:38.255Z,6.80
2018-09-01T11:34:06.818Z,6.23
2018-09-01T11:36:35.442Z,4.63
2018-09-01T11:39:05.224Z,5.33
2018-09-01T11:41:33.762Z,5.50
2018-09-01T11:44:02.320Z,5.53
2018-09-01T11:46:30.859Z,4.37
2018-09-01T11:48:59.408Z,5.23
2018-09-01T11:51:27.952Z,6.83
2018-09-01T11:53:57.172Z,7.27
2018-09-01T11:56:25.783Z,4.33
2018-09-01T11:58:54.442Z,6.00
2018-09-01T12:01:23.007Z,4.87
2018-09-01T12:03:51.519Z,4.00
2018-09-01T12:06:20.103Z,4.30
2018-09-01T12:08:48.706Z,4.37
2018-09-01T12:11:17.252Z,4.53
2018-09-01T12:13:45.823Z,3.87
2018-09-01T12:16:14.567Z,7.17
2018-09-01T12:18:43.143Z,3.60
2018-09-01T12:21:11.699Z,5.63
2018-09-01T12:23:40.276Z,4.90
2018-09-01T12:26:08.852Z,4.13
2018-09-01T12:28:37.388Z,3.20
2018-09-01T12:31:06.226Z,4.17
2018-09-01T12:33:34.778Z,4.20
2018-09-01T12:36:03.430Z,3.87
2018-09-01T12:38:31.951Z,4.27
2018-09-01T12:41:00.475Z,4.23
2018-09-01T12:43:29.094Z,4.33
2018-09-01T12:45:57.627Z,5.63
2018-09-01T12:48:27.021Z,10.70
2018-09-01T12:50:55.566Z,5.70
2018-09-01T12:53:24.196Z,9.60
2018-09-01T12:55:52.800Z,8.43
2018-09-01T12:58:21.319Z,5.37
2018-09-01T13:00:49.980Z,6.53
2018-09-01T13:03:18.538Z,5.53
2018-09-01T13:05:47.085Z,5.47
2018-09-01T13:08:15.663Z,6.17
2018-09-01T13:10:44.186Z,4.63
2018-09-01T13:13:12.758Z,9.60
2018-09-01T13:15:41.296Z,6.77
2018-09-01T13:18:09.837Z,4.70
2018-09-01T13:20:38.467Z,6.27
2018-09-01T13:23:07.127Z,5.13
2018-09-01T13:25:35.646Z,4.93
2018-09-01T13:28:04.181Z,4.47
2018-09-01T13:30:32.733Z,5.53
2018-09-01T13:33:01.283Z,6.10
2018-09-01T13:35:29.840Z,4.03
2018-09-01T13:37:58.528Z,3.27
2018-09-01T13:40:27.104Z,4.57
2018-09-01T13:42:55.631Z,4.20
2018-09-01T13:45:24.265Z,6.93
2018-09-01T13:47:52.810Z,3.70
2018-09-01T13:50:21.354Z,6.50
2018-09-01T13:52:49.900Z,4.47
2018-09-01T13:55:18.416Z,3.37
2018-09-01T13:57:46.953Z,3.53
2018-09-01T14:00:15.541Z,3.27
2018-09-01T14:02:44.109Z,5.00
2018-09-01T14:08:05.555Z,2.97
2018-09-01T14:10:34.087Z,4.13
2018-09-01T14:13:02.607Z,4.13
2018-09-01T14:15:31.366Z,3.27
2018-09-01T14:17:59.927Z,5.30
2018-09-01T14:20:28.472Z,3.47
2018-09-01T14:22:57.136Z,4.20
2018-09-01T14:25:25.874Z,4.53
2018-09-01T14:27:54.404Z,5.37
2018-09-01T14:30:22.927Z,3.57
2018-09-01T14:32:51.562Z,3.47
2018-09-01T14:35:20.297Z,4.73
2018-09-01T14:37:48.828Z,4.40
2018-09-01T14:40:17.374Z,4.43
2018-09-01T14:42:45.916Z,4.13
2018-09-01T14:45:14.452Z,3.77
2018-09-01T14:47:42.967Z,4.27
2018-09-01T14:50:11.510Z,2.87
2018-09-01T14:52:40.067Z,4.47
2018-09-01T14:55:08.595Z,3.53
2018-09-01T14:57:37.179Z,3.30
2018-09-01T15:00:06.680Z,3.77
2018-09-01T15:02:35.275Z,5.73
2018-09-01T15:05:03.832Z,3.27
2018-09-01T15:07:32.443Z,4.23
2018-09-01T15:10:00.939Z,7.97
2018-09-01T15:12:29.580Z,8.00
2018-09-01T15:14:58.152Z,6.47
2018-09-01T15:17:26.697Z,3.03
2018-09-01T15:19:55.280Z,6.47
2018-09-01T15:22:23.818Z,5.83
2018-09-01T15:24:52.342Z,2.70
2018-09-01T15:27:20.890Z,5.60
2018-09-01T15:29:49.446Z,5.23
2018-09-01T15:32:18.011Z,7.20
2018-09-01T15:34:46.651Z,3.73
2018-09-01T15:37:15.239Z,4.30
2018-09-01T15:39:43.768Z,8.63
2018-09-01T15:42:12.378Z,4.33
2018-09-01T15:44:40.959Z,4.30
2018-09-01T15:47:09.535Z,11.60
2018-09-01T15:49:38.147Z,8.87
2018-09-01T15:52:06.727Z,6.50
2018-09-01T15:54:35.291Z,6.23
2018-09-01T15:57:03.870Z,7.47
2018-09-01T15:59:32.441Z,7.10
2018-09-01T16:02:01.151Z,7.57
2018-09-01T16:04:29.687Z,6.93
2018-09-01T16:06:58.227Z,5.13
2018-09-01T16:09:26.767Z,8.53
2018-09-01T16:11:55.307Z,5.40
2018-09-01T16:14:23.855Z,18.17
2018-09-01T16:16:52.432Z,10.43
2018-09-01T16:19:20.976Z,8.27
2018-09-01T16:21:49.520Z,9.40
2018-09-01T16:24:18.065Z,10.23
2018-09-01T16:26:46.619Z,10.50
2018-09-01T16:29:15.202Z,6.03
2018-09-01T16:31:43.739Z,8.20
2018-09-01T16:34:12.314Z,6.90
2018-09-01T16:36:40.888Z,7.77
2018-09-01T16:39:09.411Z,9.67
2018-09-01T16:41:38.033Z,6.30
2018-09-01T16:44:06.700Z,11.00
2018-09-01T16:46:35.665Z,9.50
2018-09-01T16:49:27.598Z,8.03
2018-09-01T16:51:56.443Z,11.37
2018-09-01T16:54:25.042Z,7.97
2018-09-01T16:56:53.942Z,5.30
2018-09-01T16:59:23.495Z,7.37
2018-09-01T17:01:52.067Z,7.53
2018-09-01T17:04:21.356Z,12.20
2018-09-01T17:06:49.940Z,11.50
2018-09-01T17:09:18.523Z,6.93
2018-09-01T17:11:47.005Z,6.13
2018-09-01T17:14:32.393Z,7.63
2018-09-01T17:17:01.252Z,5.70
2018-09-01T17:22:12.322Z,9.13
2018-09-01T17:24:40.883Z,8.83
2018-09-01T17:27:09.411Z,11.80
2018-09-01T17:29:38.007Z,6.50
2018-09-01T17:32:06.655Z,14.23
2018-09-01T17:34:35.219Z,8.07
2018-09-01T17:37:03.787Z,8.30
2018-09-01T17:39:32.348Z,7.13
2018-09-01T17:42:00.959Z,11.63
2018-09-01T17:44:29.520Z,6.43
2018-09-01T17:46:58.072Z,7.27
2018-09-01T17:49:26.711Z,6.90
2018-09-01T17:51:55.207Z,8.43
2018-09-01T17:54:23.743Z,6.77
2018-09-01T17:56:52.316Z,11.27
2018-09-01T17:59:20.831Z,8.00
2018-09-01T18:01:50.263Z,8.90
2018-09-01T18:04:19.415Z,9.13
2018-09-01T18:06:48.017Z,9.60
2018-09-01T18:09:16.569Z,15.03
2018-09-01T18:11:45.104Z,20.13
2018-09-01T18:14:13.726Z,13.70
2018-09-01T18:16:42.276Z,11.90
2018-09-01T18:19:10.819Z,14.00
2018-09-01T18:21:39.380Z,12.27
2018-09-01T18:24:07.924Z,15.47
2018-09-01T18:26:37.446Z,12.90
2018-09-01T18:29:06.000Z,15.47
2018-09-01T18:31:34.551Z,15.77
2018-09-01T18:34:03.124Z,14.07
2018-09-01T18:36:31.727Z,15.87
2018-09-01T18:39:00.255Z,14.73
2018-09-01T18:41:28.799Z,13.93
2018-09-01T18:43:57.383Z,13.87
2018-09-01T18:46:25.912Z,16.73
2018-09-01T18:48:54.840Z,16.63
2018-09-01T18:51:23.420Z,15.70
2018-09-01T18:53:52.208Z,13.83
2018-09-01T18:56:21.236Z,14.33
2018-09-01T18:58:49.868Z,12.13
2018-09-01T19:01:18.507Z,13.70
2018-09-01T19:03:47.117Z,13.53
2018-09-01T19:06:15.679Z,11.00
2018-09-01T19:08:44.239Z,12.63
2018-09-01T19:11:12.811Z,11.70
2018-09-01T19:13:41.929Z,10.57
2018-09-01T19:16:10.504Z,11.70
2018-09-01T19:18:39.043Z,12.03
2018-09-01T19:21:07.833Z,12.17
2018-09-01T19:23:36.683Z,14.17
2018-09-01T19:26:05.408Z,11.97
2018-09-01T19:28:33.979Z,11.77
2018-09-01T19:31:02.587Z,13.27
2018-09-01T19:33:31.154Z,12.60
2018-09-01T19:35:59.849Z,9.53
2018-09-01T19:38:28.463Z,11.03
2018-09-01T19:40:57.047Z,12.97
2018-09-01T19:43:25.655Z,13.57
2018-09-01T19:45:54.192Z,9.90
2018-09-01T19:48:22.739Z,11.43
2018-09-01T19:50:51.304Z,10.60
2018-09-01T19:53:19.904Z,11.37
2018-09-01T19:55:48.508Z,11.47
2018-09-01T19:58:17.063Z,10.33
2018-09-01T20:00:46.327Z,10.33
2018-09-01T20:03:15.856Z,8.43
2018-09-01T20:05:44.407Z,9.87
2018-09-01T20:08:12.993Z,9.73
2018-09-01T20:10:41.550Z,9.30
2018-09-01T20:13:10.126Z,8.10
2018-09-01T20:15:39.339Z,8.30
2018-09-01T20:18:07.931Z,10.80
2018-09-01T20:20:36.507Z,10.23
2018-09-01T20:23:05.106Z,9.73
2018-09-01T20:25:33.701Z,9.67
2018-09-01T20:28:02.289Z,9.93
2018-09-01T20:30:30.859Z,8.20
2018-09-01T20:32:59.408Z,8.23
2018-09-01T20:35:33.187Z,8.73
2018-09-01T20:38:01.778Z,8.87
2018-09-01T20:40:30.330Z,7.93
2018-09-01T20:42:58.895Z,9.63
2018-09-01T20:45:27.493Z,7.57
2018-09-01T20:47:56.094Z,6.50
2018-09-01T20:50:24.644Z,5.40
2018-09-01T20:52:53.220Z,7.23
2018-09-01T20:55:21.844Z,7.57
2018-09-01T20:57:50.468Z,6.20
2018-09-01T21:00:19.043Z,6.50
2018-09-01T21:02:47.638Z,6.23
2018-09-01T21:05:16.339Z,7.30
2018-09-01T21:07:44.923Z,6.73
2018-09-01T21:10:13.513Z,6.13
2018-09-01T21:12:42.139Z,7.73
2018-09-01T21:15:10.740Z,5.97
2018-09-01T21:17:39.296Z,7.17
2018-09-01T21:20:07.939Z,6.50
2018-09-01T21:22:36.510Z,5.37
2018-09-01T21:25:05.236Z,6.17
2018-09-01T21:27:33.875Z,5.77
2018-09-01T21:30:02.437Z,7.10
2018-09-01T21:32:30.997Z,5.97
2018-09-01T21:34:59.874Z,5.87
2018-09-01T21:37:28.433Z,6.67
2018-09-01T21:39:56.978Z,4.80
2018-09-01T21:42:25.508Z,6.60
2018-09-01T21:44:54.103Z,6.57
2018-09-01T21:47:22.690Z,5.23
2018-09-01T21:49:51.379Z,5.60
2018-09-01T21:52:19.904Z,6.27
2018-09-01T21:54:48.466Z,5.47
2018-09-01T21:57:17.010Z,10.13
2018-09-01T21:59:45.619Z,5.83
2018-09-01T22:02:19.576Z,4.37
2018-09-01T22:04:53.414Z,5.43
2018-09-01T22:07:22.255Z,4.40
2018-09-01T22:09:52.057Z,5.53
2018-09-01T22:12:21.372Z,10.53
2018-09-01T22:14:50.750Z,5.27
2018-09-01T22:17:19.656Z,5.40
2018-09-01T22:19:48.375Z,4.07
2018-09-01T22:22:16.962Z,6.10
2018-09-01T22:24:45.492Z,7.97
2018-09-01T22:27:14.180Z,6.27
2018-09-01T22:29:42.716Z,4.40
2018-09-01T22:32:11.343Z,6.53
2018-09-01T22:34:39.895Z,4.73
2018-09-01T22:37:08.461Z,5.00
2018-09-01T22:39:37.015Z,5.87
2018-09-01T22:42:05.684Z,5.13
2018-09-01T22:44:34.271Z,4.60
2018-09-01T22:47:05.623Z,5.33
2018-09-01T22:49:34.232Z,5.27
2018-09-01T22:52:02.888Z,4.47
2018-09-01T22:54:31.440Z,5.77
2018-09-01T22:56:59.966Z,4.37
2018-09-01T22:59:28.488Z,6.73
2018-09-01T23:01:57.059Z,3.93
2018-09-01T23:04:25.614Z,4.97
2018-09-01T23:06:54.139Z,9.20
2018-09-01T23:09:22.687Z,4.53
2018-09-01T23:11:51.456Z,5.00
2018-09-01T23:14:20.002Z,5.37
2018-09-01T23:16:48.585Z,4.23
2018-09-01T23:19:17.139Z,4.93
2018-09-01T23:21:45.733Z,4.23
2018-09-01T23:24:14.255Z,4.07
2018-09-01T23:26:42.831Z,6.20
2018-09-01T23:29:11.371Z,4.60
2018-09-01T23:31:39.961Z,4.50
2018-09-01T23:34:08.540Z,4.80
2018-09-01T23:36:37.131Z,3.87
2018-09-01T23:39:07.488Z,5.57
2018-09-01T23:41:36.071Z,5.80
2018-09-01T23:44:04.673Z,6.20
2018-09-01T23:46:33.256Z,4.03
2018-09-01T23:49:01.823Z,5.07
2018-09-01T23:51:30.454Z,4.07
2018-09-01T23:53:58.998Z,4.00
2018-09-01T23:56:27.557Z,5.33
2018-09-01T23:58:56.103Z,5.33
